WXM80 ListenWXM80 Stop

You find our weather info also at:

UK Metoffice

WeatherCloud

Weather Underground

Northeastern Weather Network

AWEKAS

Citizen Weather Observer Program (CWOP)

HAMweather, WeatherForYou, PWS Weather


Weather Underground History page Text

Daily Summary for February 15, 2017 Units:  Metric    English   Both
« Previous Day
Next Day »
Daily Weekly Monthly Yearly Custom
  High: Low: Average:
Temperature: 6.3 °C 0.4 °C 3.2 °C
Dew Point: 4 °C -1.8 °C 1.6 °C
Humidity: 95 % 73 % 89 %
Wind Speed: 17.4 km/h 0 km/h 4 km/h
Wind Gust: 29.6 km/h - -
Wind:- - SW
Pressure: 1005.6 hPa 990.4 hPa -
Precipitation: 0 mm    
Historical Graphs
 
 
Tabular Data for February 15, 2017
Time Temperature Dew Point Pressure Wind Wind Speed Wind Gust Humidity Rainfall Rate (Hourly)
00:00 1.9 °C 0.5 °C 1005.6 hPa South 1.4 km/h 4.8 km/h 90 % 0 mm
00:05 1.9 °C 0.5 °C 1005.6 hPa SSE 2.4 km/h 5.6 km/h 90 % 0 mm
00:10 1.9 °C 0.3 °C 1005.6 hPa South 4.3 km/h 7.4 km/h 89 % 0 mm
00:15 1.9 °C 0.3 °C 1005.6 hPa SSW 5.5 km/h 9.3 km/h 89 % 0 mm
00:20 1.9 °C 0.3 °C 1005.6 hPa SSW 6.9 km/h 11.1 km/h 89 % 0 mm
00:25 1.9 °C 0.3 °C 1005.3 hPa SSW 5.5 km/h 7.4 km/h 89 % 0 mm
00:30 2 °C 0.4 °C 1005.3 hPa South 3.9 km/h 7.4 km/h 89 % 0 mm
00:35 2 °C 0.4 °C 1005 hPa South 7.1 km/h 11.1 km/h 89 % 0 mm
00:40 2.1 °C 0.6 °C 1005 hPa SW 4.2 km/h 7.4 km/h 90 % 0 mm
00:45 2.1 °C 0.7 °C 1005 hPa SSW 7.1 km/h 11.1 km/h 90 % 0 mm
00:50 2.2 °C 0.7 °C 1004.6 hPa South 7.4 km/h 11.1 km/h 90 % 0 mm
00:55 2.2 °C 0.8 °C 1004.6 hPa South 4.2 km/h 7.4 km/h 90 % 0 mm
01:00 2.2 °C 0.8 °C 1004.6 hPa SSW 2.7 km/h 6.4 km/h 90 % 0 mm
01:10 2.3 °C 0.9 °C 1004.6 hPa SSW 3.4 km/h 7.4 km/h 91 % 0 mm
01:15 2.3 °C 0.9 °C 1004.3 hPa South 2.9 km/h 11.3 km/h 91 % 0 mm
01:20 2.3 °C 0.9 °C 1004.3 hPa SSW 2.6 km/h 7.4 km/h 91 % 0 mm
01:25 2.3 °C 1.2 °C 1004.3 hPa South 10.8 km/h 16.7 km/h 92 % 0 mm
01:31 2.4 °C 1.2 °C 1004.3 hPa SSW 5.3 km/h 9.3 km/h 92 % 0 mm
01:36 2.4 °C 1.3 °C 1004.3 hPa SSW 7.1 km/h 11.1 km/h 92 % 0 mm
01:41 2.5 °C 1.3 °C 1004.3 hPa SSW 8.4 km/h 16.7 km/h 92 % 0 mm
01:46 2.6 °C 1.6 °C 1004.3 hPa SSW 6.4 km/h 9.7 km/h 93 % 0 mm
01:51 2.6 °C 1.6 °C 1004.3 hPa South 4.2 km/h 11.1 km/h 93 % 0 mm
01:56 2.6 °C 1.6 °C 1004.3 hPa SW 4.5 km/h 11.3 km/h 93 % 0 mm
02:01 2.6 °C 1.6 °C 1004.3 hPa SW 4.8 km/h 9.7 km/h 93 % 0 mm
02:06 2.7 °C 1.7 °C 1004.3 hPa SW 2.4 km/h 5.6 km/h 93 % 0 mm
02:11 2.7 °C 1.7 °C 1003.9 hPa WSW 6.3 km/h 11.1 km/h 93 % 0 mm
02:16 2.7 °C 1.7 °C 1003.9 hPa SW 5.5 km/h 7.4 km/h 93 % 0 mm
02:21 2.7 °C 1.7 °C 1003.9 hPa SSW 4.2 km/h 9.3 km/h 93 % 0 mm
02:26 2.7 °C 1.7 °C 1003.9 hPa SW 4.5 km/h 7.4 km/h 93 % 0 mm
02:31 2.7 °C 1.7 °C 1003.6 hPa SW 3.7 km/h 5.6 km/h 93 % 0 mm
02:36 2.6 °C 1.6 °C 1003.6 hPa WSW 4.7 km/h 9.3 km/h 93 % 0 mm
02:42 2.6 °C 1.6 °C 1003.6 hPa SW 7.1 km/h 13 km/h 93 % 0 mm
02:47 2.7 °C 1.7 °C 1003.6 hPa SW 4.2 km/h 5.6 km/h 93 % 0 mm
02:52 2.6 °C 1.6 °C 1003.3 hPa SW 2.3 km/h 6.4 km/h 93 % 0 mm
02:57 2.6 °C 1.6 °C 1003.3 hPa SW 3.5 km/h 5.6 km/h 93 % 0 mm
03:02 2.6 °C 1.6 °C 1002.9 hPa West 4.2 km/h 9.7 km/h 93 % 0 mm
03:12 2.6 °C 1.6 °C 1002.9 hPa WSW 6.3 km/h 9.7 km/h 93 % 0 mm
03:17 2.6 °C 1.4 °C 1002.6 hPa SSW 5.3 km/h 11.3 km/h 92 % 0 mm
03:22 2.5 °C 1.3 °C 1002.6 hPa SSW 5.3 km/h 7.4 km/h 92 % 0 mm
03:27 2.4 °C 1.3 °C 1002.6 hPa SW 5 km/h 7.4 km/h 92 % 0 mm
03:32 2.4 °C 1.2 °C 1002.6 hPa SSW 3.4 km/h 8 km/h 92 % 0 mm
03:37 2.3 °C 1.3 °C 1002.6 hPa SW 4.5 km/h 9.3 km/h 93 % 0 mm
03:42 2.3 °C 1.3 °C 1002.3 hPa SSW 7.9 km/h 11.1 km/h 93 % 0 mm
03:48 2.3 °C 1.3 °C 1002.3 hPa SW 6.8 km/h 8 km/h 93 % 0 mm
03:53 2.3 °C 1.3 °C 1002.3 hPa SW 4.3 km/h 11.1 km/h 93 % 0 mm
03:58 2.4 °C 1.4 °C 1001.9 hPa SW 6.8 km/h 11.3 km/h 93 % 0 mm
04:03 2.4 °C 1.4 °C 1001.9 hPa SW 4 km/h 5.6 km/h 93 % 0 mm
04:08 2.4 °C 1.4 °C 1001.6 hPa SW 4.7 km/h 9.7 km/h 93 % 0 mm
04:13 2.4 °C 1.4 °C 1001.6 hPa SSW 5 km/h 5.6 km/h 93 % 0 mm
04:18 2.4 °C 1.4 °C 1001.6 hPa SSW 3.5 km/h 7.4 km/h 93 % 0 mm
04:23 2.3 °C 1.3 °C 1001.2 hPa SW 3.7 km/h 3.7 km/h 93 % 0 mm
04:28 2.3 °C 1.3 °C 1001.2 hPa SW 2.3 km/h 5.6 km/h 93 % 0 mm
04:33 2.3 °C 1.3 °C 1001.2 hPa SW 1.6 km/h 1.9 km/h 93 % 0 mm
04:38 2.3 °C 1.3 °C 1001.2 hPa SW 0.2 km/h 1.9 km/h 93 % 0 mm
04:43 2.2 °C 1.1 °C 1001.2 hPa Calm     92 % 0 mm
04:48 2.2 °C 1.1 °C 1000.9 hPa SW 0.2 km/h 1.9 km/h 92 % 0 mm
04:53 2.2 °C 1 °C 1000.9 hPa SW 0.5 km/h 1.9 km/h 92 % 0 mm
04:58 2 °C 0.8 °C 1001.2 hPa SSW 3.7 km/h 7.4 km/h 92 % 0 mm
05:03 1.9 °C 0.6 °C 1001.2 hPa SSW 3.2 km/h 8 km/h 91 % 0 mm
05:08 1.8 °C 0.7 °C 1000.9 hPa South 4 km/h 6.4 km/h 92 % 0 mm
05:13 1.8 °C 0.6 °C 1000.9 hPa SSW 3.2 km/h 8 km/h 92 % 0 mm
05:18 1.7 °C 0.6 °C 1000.9 hPa SSW 3.2 km/h 8 km/h 92 % 0 mm
05:23 1.7 °C 0.6 °C 1000.9 hPa SSW 3.2 km/h 8 km/h 92 % 0 mm
05:28 1.8 °C 0.6 °C 1000.9 hPa SSW 3.2 km/h 6.4 km/h 92 % 0 mm
05:33 1.8 °C 0.8 °C 1000.9 hPa SSW 3.2 km/h 6.4 km/h 93 % 0 mm
05:38 1.8 °C 0.8 °C 1000.9 hPa SSW 1.6 km/h 4.8 km/h 93 % 0 mm
05:43 1.8 °C 0.6 °C 1000.9 hPa SSW 1.6 km/h 6.4 km/h 92 % 0 mm
05:48 1.8 °C 0.6 °C 1000.9 hPa Calm   3.2 km/h 92 % 0 mm
05:53 1.8 °C 0.6 °C 1000.9 hPa Calm   4.8 km/h 92 % 0 mm
06:08 1.7 °C 0.6 °C 1000.9 hPa Calm     92 % 0 mm
06:13 1.7 °C 0.6 °C 1000.6 hPa Calm   1.6 km/h 92 % 0 mm
06:18 1.7 °C 0.5 °C 1000.6 hPa Calm     92 % 0 mm
06:23 1.7 °C 0.5 °C 1000.6 hPa Calm     92 % 0 mm
06:28 1.6 °C 0.4 °C 1000.6 hPa Calm     92 % 0 mm
06:33 1.5 °C 0.2 °C 1000.6 hPa Calm     91 % 0 mm
06:38 1.4 °C 0.1 °C 1000.6 hPa Calm   1.6 km/h 91 % 0 mm
06:43 1.3 °C -0.1 °C 1000.6 hPa Calm     91 % 0 mm
06:44 1.3 °C -0.1 °C 1000.6 hPa Calm     91 % 0 mm
06:49 1.1 °C -0.3 °C 1000.2 hPa Calm     90 % 0 mm
06:54 0.9 °C -0.5 °C 1000.2 hPa Calm     90 % 0 mm
06:59 0.8 °C -0.6 °C 1000.2 hPa Calm     90 % 0 mm
07:04 0.7 °C -0.7 °C 1000.2 hPa Calm     90 % 0 mm
07:09 0.6 °C -0.9 °C 999.9 hPa Calm     90 % 0 mm
07:14 0.5 °C -0.8 °C 999.9 hPa Calm     91 % 0 mm
07:19 0.5 °C -0.8 °C 999.9 hPa WSW 0.2 km/h 1.9 km/h 91 % 0 mm
07:24 0.4 °C -0.7 °C 999.5 hPa Calm     92 % 0 mm
07:29 0.4 °C -0.7 °C 999.9 hPa Calm     92 % 0 mm
07:34 0.4 °C -0.7 °C 999.5 hPa Calm     92 % 0 mm
07:39 0.4 °C -0.6 °C 999.5 hPa Calm     93 % 0 mm
07:44 0.4 °C -0.6 °C 999.2 hPa Calm     93 % 0 mm
07:49 0.4 °C -0.6 °C 999.2 hPa Calm     93 % 0 mm
07:54 0.4 °C -0.6 °C 999.2 hPa Calm     93 % 0 mm
08:00 0.5 °C -0.5 °C 999.2 hPa Calm     93 % 0 mm
08:05 0.5 °C -0.5 °C 999.2 hPa Calm     93 % 0 mm
08:10 0.6 °C -0.4 °C 998.9 hPa Calm     93 % 0 mm
08:15 0.7 °C -0.3 °C 998.9 hPa Calm     93 % 0 mm
08:20 0.8 °C 0 °C 998.9 hPa Calm     94 % 0 mm
08:25 0.9 °C 0.1 °C 998.9 hPa Calm     94 % 0 mm
08:30 1.1 °C 0.3 °C 998.5 hPa Calm     94 % 0 mm
08:36 1.3 °C 0.4 °C 998.2 hPa Calm     94 % 0 mm
08:41 1.4 °C 0.6 °C 998.2 hPa Calm     94 % 0 mm
08:46 1.6 °C 0.9 °C 997.9 hPa Calm     95 % 0 mm
08:51 1.8 °C 1.1 °C 997.9 hPa Calm     95 % 0 mm
08:56 2 °C 1.3 °C 997.9 hPa Calm     95 % 0 mm
09:01 2.2 °C 1.4 °C 997.9 hPa Calm     95 % 0 mm
09:06 2.4 °C 1.7 °C 997.9 hPa Calm     95 % 0 mm
09:11 2.6 °C 1.9 °C 997.9 hPa Calm     95 % 0 mm
09:21 3.1 °C 2.4 °C 997.9 hPa Calm     95 % 0 mm
09:26 3.3 °C 2.6 °C 997.9 hPa Calm     95 % 0 mm
09:31 3.5 °C 2.8 °C 997.9 hPa Calm     95 % 0 mm
09:36 3.7 °C 2.9 °C 997.9 hPa Calm     95 % 0 mm
09:41 3.8 °C 3.1 °C 997.5 hPa Calm     95 % 0 mm
09:46 3.9 °C 3.2 °C 997.5 hPa Calm     95 % 0 mm
09:52 4.1 °C 3.4 °C 997.2 hPa Calm     95 % 0 mm
09:57 4.3 °C 3.6 °C 996.8 hPa Calm     95 % 0 mm
10:02 4.4 °C 3.6 °C 996.8 hPa WSW 0.6 km/h 1.9 km/h 94 % 0 mm
10:07 4.6 °C 3.5 °C 997.2 hPa NW 3.9 km/h 5.6 km/h 93 % 0 mm
10:12 4.7 °C 3.5 °C 996.8 hPa NNW 5.1 km/h 6.4 km/h 92 % 0 mm
10:17 4.8 °C 3.6 °C 996.8 hPa NNE 3.7 km/h 5.6 km/h 92 % 0 mm
10:22 4.8 °C 3.5 °C 996.8 hPa NE 2.4 km/h 5.6 km/h 91 % 0 mm
10:27 4.8 °C 3.5 °C 996.5 hPa ENE 5.1 km/h 7.4 km/h 91 % 0 mm
10:32 4.8 °C 3.4 °C 996.5 hPa North 7.7 km/h 11.1 km/h 91 % 0 mm
10:37 4.8 °C 3.3 °C 996.5 hPa NNE 5.8 km/h 7.4 km/h 90 % 0 mm
10:42 4.8 °C 3.3 °C 996.5 hPa NNE 7.4 km/h 9.7 km/h 90 % 0 mm
10:47 4.8 °C 3.3 °C 996.5 hPa NNE 2.9 km/h 5.6 km/h 90 % 0 mm
10:52 4.8 °C 3.3 °C 996.5 hPa NNE 4.8 km/h 7.4 km/h 90 % 0 mm
10:57 4.9 °C 3.4 °C 996.2 hPa NNE 3.1 km/h 6.4 km/h 90 % 0 mm
11:02 4.9 °C 3.2 °C 996.2 hPa NNE 5.3 km/h 8 km/h 89 % 0 mm
11:07 4.8 °C 3.2 °C 996.2 hPa NNE 1.3 km/h 3.2 km/h 89 % 0 mm
11:12 4.8 °C 3.3 °C 996.2 hPa Calm   5.6 km/h 90 % 0 mm
11:17 4.9 °C 3.4 °C 995.8 hPa NNW 3.5 km/h 5.6 km/h 90 % 0 mm
11:22 4.9 °C 3.3 °C 995.8 hPa NNW 0.6 km/h 3.7 km/h 89 % 0 mm
11:27 5 °C 3.3 °C 995.8 hPa NNW 1.4 km/h 5.6 km/h 89 % 0 mm
11:32 5.1 °C 3.4 °C 995.8 hPa NNW 1.3 km/h 3.7 km/h 89 % 0 mm
11:37 5.1 °C 3.4 °C 995.5 hPa Calm   1.9 km/h 89 % 0 mm
11:42 5.1 °C 3.4 °C 995.1 hPa NNW 0.3 km/h 1.9 km/h 89 % 0 mm
11:48 5.1 °C 3.4 °C 995.1 hPa Calm   1.6 km/h 89 % 0 mm
11:53 5 °C 3.3 °C 995.1 hPa Calm     89 % 0 mm
11:58 5.1 °C 3.4 °C 995.1 hPa Calm     89 % 0 mm
12:03 5.1 °C 3.6 °C 995.1 hPa NNW 0.2 km/h 1.9 km/h 90 % 0 mm
12:08 5.2 °C 3.7 °C 994.8 hPa NNW 0.5 km/h 1.9 km/h 90 % 0 mm
12:13 5.3 °C 3.6 °C 994.8 hPa NNW 1.9 km/h 5.6 km/h 89 % 0 mm
12:18 5.3 °C 3.7 °C 994.8 hPa NNW 1.8 km/h 3.7 km/h 89 % 0 mm
12:23 5.4 °C 3.7 °C 994.8 hPa NNW 2.4 km/h 5.6 km/h 89 % 0 mm
12:28 5.4 °C 3.6 °C 994.5 hPa NNW 1.1 km/h 3.7 km/h 88 % 0 mm
12:33 5.5 °C 3.7 °C 994.5 hPa NNW 1.6 km/h 1.9 km/h 88 % 0 mm
12:38 5.6 °C 3.6 °C 994.1 hPa NNW 0.8 km/h 3.7 km/h 87 % 0 mm
12:43 5.6 °C 3.6 °C 994.1 hPa Calm   1.9 km/h 87 % 0 mm
12:53 5.7 °C 3.7 °C 993.8 hPa NNW 0.5 km/h 3.7 km/h 87 % 0 mm
12:58 5.8 °C 3.8 °C 993.5 hPa NNW 2.7 km/h 3.2 km/h 87 % 0 mm
13:03 5.8 °C 3.6 °C 993.5 hPa NNW 1.4 km/h 5.6 km/h 86 % 0 mm
13:08 5.7 °C 3.7 °C 993.5 hPa North 2.1 km/h 3.7 km/h 87 % 0 mm
13:13 5.7 °C 3.7 °C 993.1 hPa North 3.2 km/h 4.8 km/h 87 % 0 mm
13:18 5.6 °C 3.6 °C 993.1 hPa Calm   4.8 km/h 87 % 0 mm
13:23 5.8 °C 3.8 °C 993.1 hPa NNE 5.8 km/h 7.4 km/h 87 % 0 mm
13:28 5.9 °C 3.9 °C 993.1 hPa NNE 3.2 km/h 8 km/h 87 % 0 mm
13:33 6.1 °C 3.9 °C 993.1 hPa NNE 1.6 km/h 4.8 km/h 86 % 0 mm
13:38 6.2 °C 4 °C 992.8 hPa NNE 1.6 km/h 3.2 km/h 86 % 0 mm
13:43 6.2 °C 3.8 °C 992.8 hPa NNE 1.6 km/h 4.8 km/h 85 % 0 mm
13:48 6.3 °C 3.9 °C 992.8 hPa NE 3.2 km/h 4.8 km/h 85 % 0 mm
13:53 6.1 °C 3.8 °C 992.8 hPa NE 1.6 km/h 4.8 km/h 85 % 0 mm
13:58 5.9 °C 3.6 °C 992.4 hPa NE 2.6 km/h 5.6 km/h 85 % 0 mm
14:03 5.8 °C 3.5 °C 992.4 hPa NE 2.4 km/h 5.6 km/h 85 % 0 mm
14:08 5.7 °C 3.5 °C 992.1 hPa NE 1.9 km/h 5.6 km/h 86 % 0 mm
14:13 5.6 °C 3.4 °C 992.1 hPa NE 0.5 km/h 3.7 km/h 86 % 0 mm
14:18 5.4 °C 3.3 °C 992.1 hPa NE 3.4 km/h 5.6 km/h 86 % 0 mm
14:24 5.3 °C 3.3 °C 992.1 hPa NE 3.1 km/h 3.7 km/h 87 % 0 mm
14:29 5.2 °C 3.2 °C 992.1 hPa NE 2.6 km/h 3.7 km/h 87 % 0 mm
14:34 5.2 °C 3.3 °C 992.1 hPa NE 3.1 km/h 5.6 km/h 88 % 0 mm
14:39 5.1 °C 3.3 °C 991.8 hPa NE 2.3 km/h 5.6 km/h 88 % 0 mm
14:44 4.9 °C 3.1 °C 991.8 hPa NE 1.1 km/h 5.6 km/h 88 % 0 mm
14:49 4.9 °C 3.2 °C 992.1 hPa NE 1.8 km/h 3.7 km/h 89 % 0 mm
14:54 4.9 °C 3.2 °C 992.1 hPa NE 2.4 km/h 3.7 km/h 89 % 0 mm
14:59 4.9 °C 3.2 °C 991.8 hPa NE 0.2 km/h 3.7 km/h 89 % 0 mm
15:04 4.9 °C 3.2 °C 991.8 hPa NE 0.5 km/h 3.7 km/h 89 % 0 mm
15:09 4.9 °C 3.2 °C 991.8 hPa NE 3.4 km/h 4.8 km/h 89 % 0 mm
15:14 4.8 °C 3.2 °C 991.8 hPa NE 0.5 km/h 1.9 km/h 89 % 0 mm
15:19 4.8 °C 3.2 °C 991.8 hPa NE 0.3 km/h 3.7 km/h 89 % 0 mm
15:24 4.8 °C 3.3 °C 991.4 hPa NE 1.3 km/h 5.6 km/h 90 % 0 mm
15:29 4.8 °C 3.3 °C 991.4 hPa NE 1.1 km/h 1.9 km/h 90 % 0 mm
15:34 4.7 °C 3.2 °C 991.4 hPa NE 0.6 km/h 1.9 km/h 90 % 0 mm
15:39 4.7 °C 3.2 °C 991.4 hPa NE 0.8 km/h 1.9 km/h 90 % 0 mm
15:44 4.6 °C 3.1 °C 991.1 hPa NE 0.8 km/h 3.7 km/h 90 % 0 mm
15:49 4.6 °C 3.1 °C 991.1 hPa NE 0.6 km/h 1.9 km/h 90 % 0 mm
15:54 4.5 °C 3 °C 991.1 hPa Calm   1.9 km/h 90 % 0 mm
15:59 4.4 °C 3.1 °C 990.7 hPa Calm   1.6 km/h 91 % 0 mm
16:04 4.4 °C 2.9 °C 990.7 hPa Calm     90 % 0 mm
16:10 4.3 °C 2.8 °C 990.7 hPa NE 0.2 km/h 1.9 km/h 90 % 0 mm
16:15 4.3 °C 2.9 °C 990.7 hPa Calm     91 % 0 mm
16:20 4.3 °C 2.9 °C 990.7 hPa Calm     91 % 0 mm
16:25 4.3 °C 2.9 °C 990.7 hPa Calm     91 % 0 mm
16:30 4.3 °C 2.9 °C 990.4 hPa Calm     91 % 0 mm
16:35 4.3 °C 2.9 °C 990.4 hPa Calm     91 % 0 mm
16:40 4.3 °C 2.9 °C 990.4 hPa Calm     91 % 0 mm
16:45 4.3 °C 2.9 °C 990.4 hPa Calm     91 % 0 mm
16:50 4.3 °C 2.9 °C 990.4 hPa Calm     91 % 0 mm
16:55 4.3 °C 2.9 °C 990.4 hPa Calm     91 % 0 mm
17:00 4.2 °C 2.9 °C 990.4 hPa Calm   1.9 km/h 91 % 0 mm
17:05 4.1 °C 2.8 °C 990.4 hPa NE 1 km/h 3.7 km/h 91 % 0 mm
17:10 4 °C 2.5 °C 990.4 hPa NE 0.2 km/h 1.9 km/h 90 % 0 mm
17:15 3.9 °C 2.4 °C 990.4 hPa Calm     90 % 0 mm
17:20 3.8 °C 2.3 °C 990.7 hPa Calm   1.6 km/h 90 % 0 mm
17:25 3.8 °C 2.3 °C 990.7 hPa NNW 1 km/h 1.9 km/h 90 % 0 mm
17:31 3.7 °C 2.3 °C 991.1 hPa West 0.8 km/h 1.9 km/h 91 % 0 mm
17:36 3.7 °C 2.3 °C 991.1 hPa NW 4 km/h 5.6 km/h 91 % 0 mm
17:41 3.7 °C 2.3 °C 991.1 hPa WNW 10 km/h 18.5 km/h 91 % 0 mm
17:46 3.7 °C 2.4 °C 991.1 hPa WNW 4.8 km/h 19.3 km/h 91 % 0 mm
17:51 3.8 °C 2.5 °C 991.4 hPa WNW 12.9 km/h 22.2 km/h 91 % 0 mm
17:56 3.9 °C 2.6 °C 991.8 hPa NW 12.4 km/h 18.5 km/h 91 % 0 mm
18:01 3.9 °C 2.6 °C 991.8 hPa NNW 15 km/h 27.8 km/h 91 % 0 mm
18:06 3.8 °C 2.5 °C 991.8 hPa WNW 10.5 km/h 20.4 km/h 91 % 0 mm
18:11 3.8 °C 2.4 °C 991.8 hPa WNW 6.9 km/h 18.5 km/h 91 % 0 mm
18:16 3.7 °C 2.4 °C 991.8 hPa West 4 km/h 13 km/h 91 % 0 mm
18:21 3.6 °C 2.3 °C 991.8 hPa West 6.8 km/h 16.7 km/h 91 % 0 mm
18:26 3.6 °C 2.2 °C 992.1 hPa WNW 4.7 km/h 18.5 km/h 91 % 0 mm
18:31 3.4 °C 2.3 °C 992.1 hPa West 13.2 km/h 20.4 km/h 92 % 0 mm
18:36 3.4 °C 2.2 °C 992.1 hPa West 9 km/h 18.5 km/h 92 % 0 mm
18:42 3.4 °C 2.2 °C 992.1 hPa WNW 9 km/h 14.8 km/h 92 % 0 mm
18:47 3.4 °C 2.2 °C 992.4 hPa West 7.6 km/h 20.4 km/h 92 % 0 mm
18:52 3.3 °C 2.2 °C 992.4 hPa WSW 8.7 km/h 16.1 km/h 92 % 0 mm
18:57 3.3 °C 2.2 °C 992.4 hPa West 6.4 km/h 11.1 km/h 92 % 0 mm
19:02 3.3 °C 2 °C 992.4 hPa West 8.7 km/h 14.5 km/h 91 % 0 mm
19:07 3.3 °C 2 °C 992.4 hPa NW 16.6 km/h 27.8 km/h 91 % 0 mm
19:12 3.3 °C 2 °C 992.8 hPa NNW 12.9 km/h 22.5 km/h 91 % 0 mm
19:17 3.3 °C 2 °C 993.1 hPa NNW 11.7 km/h 17.7 km/h 91 % 0 mm
19:22 3.3 °C 1.8 °C 993.1 hPa North 12.9 km/h 16.7 km/h 90 % 0 mm
19:27 3.3 °C 1.8 °C 993.1 hPa NW 5 km/h 9.3 km/h 90 % 0 mm
19:32 3.3 °C 1.8 °C 993.1 hPa NNW 8 km/h 13 km/h 90 % 0 mm
19:37 3.2 °C 1.7 °C 993.5 hPa West 9 km/h 16.1 km/h 90 % 0 mm
19:42 3.2 °C 1.7 °C 993.5 hPa NW 11.4 km/h 20.4 km/h 90 % 0 mm
19:47 3.2 °C 1.6 °C 993.5 hPa North 8.5 km/h 14.8 km/h 89 % 0 mm
19:52 3.1 °C 1.5 °C 993.5 hPa NNW 8.9 km/h 13 km/h 89 % 0 mm
19:58 3.1 °C 1.4 °C 993.5 hPa NNW 7.2 km/h 14.8 km/h 89 % 0 mm
20:03 3 °C 1.4 °C 993.5 hPa NNE 8.7 km/h 13 km/h 89 % 0 mm
20:08 3 °C 1.4 °C 993.5 hPa NW 4.7 km/h 9.7 km/h 89 % 0 mm
20:13 2.9 °C 1.3 °C 993.5 hPa WNW 6.8 km/h 11.3 km/h 89 % 0 mm
20:18 2.9 °C 1.3 °C 993.8 hPa WNW 11.9 km/h 20.4 km/h 89 % 0 mm
20:23 2.8 °C 1.3 °C 993.8 hPa NW 6.4 km/h 9.3 km/h 90 % 0 mm
20:28 2.8 °C 1.3 °C 993.8 hPa NNW 9.2 km/h 14.8 km/h 90 % 0 mm
20:33 2.8 °C 1.3 °C 993.8 hPa WNW 9.8 km/h 14.8 km/h 90 % 0 mm
20:38 2.7 °C 1.2 °C 993.8 hPa West 9.2 km/h 16.7 km/h 90 % 0 mm
20:43 2.7 °C 1.1 °C 993.8 hPa WNW 4.8 km/h 19.3 km/h 89 % 0 mm
20:48 2.7 °C 1.1 °C 993.8 hPa WNW 8 km/h 16.1 km/h 89 % 0 mm
20:53 2.7 °C 1.1 °C 994.1 hPa WNW 4.8 km/h 12.9 km/h 89 % 0 mm
20:58 2.6 °C 1 °C 993.8 hPa West 7.9 km/h 16.7 km/h 89 % 0 mm
21:03 2.6 °C 0.9 °C 994.1 hPa WSW 9.8 km/h 18.5 km/h 89 % 0 mm
21:08 2.5 °C 0.9 °C 994.1 hPa WNW 7.9 km/h 14.8 km/h 89 % 0 mm
21:13 2.5 °C 1 °C 994.1 hPa WSW 5.8 km/h 11.1 km/h 90 % 0 mm
21:18 2.5 °C 1 °C 994.1 hPa West 10.8 km/h 20.4 km/h 90 % 0 mm
21:24 2.4 °C 0.8 °C 994.1 hPa WNW 7.7 km/h 13 km/h 89 % 0 mm
21:29 2.4 °C 0.6 °C 994.1 hPa West 17.4 km/h 20.4 km/h 88 % 0 mm
21:34 2.4 °C 0.3 °C 994.1 hPa WNW 7.1 km/h 18.5 km/h 86 % 0 mm
21:39 2.4 °C -0.2 °C 994.1 hPa WNW 7.9 km/h 19.3 km/h 83 % 0 mm
21:44 2.4 °C -0.6 °C 994.1 hPa WNW 9.8 km/h 19.3 km/h 81 % 0 mm
21:49 2.4 °C -0.8 °C 994.5 hPa NW 9.8 km/h 17.7 km/h 79 % 0 mm
21:54 2.4 °C -1 °C 994.5 hPa NW 10.3 km/h 17.7 km/h 78 % 0 mm
21:59 2.5 °C -1.1 °C 994.5 hPa WNW 7.9 km/h 20.4 km/h 77 % 0 mm
22:04 2.5 °C -1.3 °C 994.5 hPa WNW 12.1 km/h 22.2 km/h 76 % 0 mm
22:09 2.5 °C -1.3 °C 994.5 hPa WSW 7.6 km/h 18.5 km/h 76 % 0 mm
22:14 2.5 °C -1.5 °C 994.5 hPa WNW 10.6 km/h 24.1 km/h 75 % 0 mm
22:19 2.5 °C -1.5 °C 994.5 hPa West 10.9 km/h 24.1 km/h 75 % 0 mm
22:24 2.5 °C -1.7 °C 994.5 hPa NW 14.5 km/h 27.8 km/h 74 % 0 mm
22:29 2.6 °C -1.6 °C 994.5 hPa NW 15.6 km/h 20.4 km/h 74 % 0 mm
22:34 2.6 °C -1.6 °C 994.5 hPa NW 11.9 km/h 24.1 km/h 74 % 0 mm
22:39 2.6 °C -1.8 °C 994.5 hPa West 5.8 km/h 20.4 km/h 73 % 0 mm
22:44 2.6 °C -1.8 °C 994.5 hPa West 6 km/h 18.5 km/h 73 % 0 mm
22:50 2.5 °C -1.8 °C 994.5 hPa West 15.9 km/h 29.6 km/h 73 % 0 mm
22:55 2.5 °C -1.8 °C 994.5 hPa WSW 10.8 km/h 29.6 km/h 73 % 0 mm
23:00 2.5 °C -1.5 °C 994.5 hPa WSW 8.5 km/h 14.8 km/h 75 % 0 mm
23:05 2.4 °C -1.3 °C 994.5 hPa West 5.3 km/h 11.3 km/h 76 % 0 mm
23:10 2.3 °C -1.4 °C 994.5 hPa WSW 9.5 km/h 19.3 km/h 76 % 0 mm
23:15 2.3 °C -1.3 °C 994.8 hPa WNW 12.7 km/h 16.7 km/h 77 % 0 mm
23:20 2.2 °C -1.4 °C 994.8 hPa WNW 9.3 km/h 14.8 km/h 77 % 0 mm
23:25 2.2 °C -1.4 °C 994.8 hPa WNW 5.6 km/h 13 km/h 77 % 0 mm
23:30 2.2 °C -1.4 °C 994.8 hPa West 11.7 km/h 18.5 km/h 77 % 0 mm
23:35 2.2 °C -1.4 °C 994.8 hPa West 7.4 km/h 14.5 km/h 77 % 0 mm
23:40 2.1 °C -1.7 °C 995.1 hPa West 4.8 km/h 13 km/h 76 % 0 mm
23:45 2.1 °C -1.5 °C 994.8 hPa West 9 km/h 18.5 km/h 77 % 0 mm
23:50 2.1 °C -1.7 °C 994.8 hPa WSW 14.2 km/h 18.5 km/h 76 % 0 mm
23:55 2.1 °C -1.7 °C 994.8 hPa West 9.8 km/h 16.7 km/h 76 % 0 mm
Crab Meadow Weather
Compliments of Weather Underground - 3 mb

Script developed by  Jim McMurry - jmcmurry@mwt.net Adapted for the template by  Wim van der Kuil - Leuven-Template.eu

Pollen: Each year American vegetation spews forth some 1,000,000 tons of pollen into the air we breathe.